Time;durP1;ratioP1;P1;durP2;ratioP2;P2;SDS_P1;SDS_P2;PMS_P1;PMS_P2;Temp;Humidity;BMP_temperature;BMP_pressure;BME280_temperature;BME280_humidity;BME280_pressure;Samples;Min_cycle;Max_cycle;Signal;HPM_P1;HPM_P2
2022/01/02 00:01:23;;;;;;;27.47;9.50;;;;;;;;;;5091091;28;20218;-82
2022/01/02 00:03:52;;;;;;;27.93;10.70;;;;;;;;;;5086620;28;20665;-82
2022/01/02 00:06:24;;;;;;;18.57;8.50;;;;;;;;;;5087985;28;20194;-82
2022/01/02 00:08:54;;;;;;;29.77;9.60;;;;;;;;;;5087549;28;20225;-82
2022/01/02 00:11:25;;;;;;;23.67;9.77;;;;;;;;;;5092806;28;20254;-81
2022/01/02 00:13:56;;;;;;;22.40;10.00;;;;;;;;;;5094722;28;20553;-82
2022/01/02 00:16:24;;;;;;;23.47;9.83;;;;;;;;;;5091165;28;20711;-82
2022/01/02 00:19:04;;;;;;;28.93;10.67;;;;;;;;;;5085809;28;20225;-81
2022/01/02 00:21:33;;;;;;;27.53;11.47;;;;;;;;;;5090233;28;20209;-82
2022/01/02 00:24:05;;;;;;;37.30;12.40;;;;;;;;;;5092010;28;20683;-82
2022/01/02 00:26:38;;;;;;;30.13;12.20;;;;;;;;;;5090665;28;20204;-80
2022/01/02 00:29:06;;;;;;;30.60;12.40;;;;;;;;;;5089594;28;20238;-81
2022/01/02 00:31:34;;;;;;;29.20;12.50;;;;;;;;;;5089813;28;20287;-82
2022/01/02 00:34:03;;;;;;;29.17;12.70;;;;;;;;;;5089392;28;20213;-81
2022/01/02 00:36:31;;;;;;;37.23;13.63;;;;;;;;;;5089825;28;20209;-83
2022/01/02 00:38:58;;;;;;;35.80;13.70;;;;;;;;;;5092041;28;20294;-82
2022/01/02 00:41:27;;;;;;;34.57;14.13;;;;;;;;;;5091679;28;20230;-82
2022/01/02 00:43:58;;;;;;;30.43;13.20;;;;;;;;;;5088846;28;20220;-81
2022/01/02 00:46:27;;;;;;;35.33;13.37;;;;;;;;;;5089601;28;20202;-82
2022/01/02 00:48:57;;;;;;;32.93;14.43;;;;;;;;;;5091864;28;20261;-81
2022/01/02 00:51:28;;;;;;;34.30;14.20;;;;;;;;;;5088878;28;20212;-80
2022/01/02 00:53:58;;;;;;;35.60;14.10;;;;;;;;;;5084556;28;20208;-81
2022/01/02 00:56:28;;;;;;;35.70;13.33;;;;;;;;;;5090401;28;20213;-81
2022/01/02 00:59:00;;;;;;;26.40;12.63;;;;;;;;;;5087682;28;20234;-81
2022/01/02 01:01:30;;;;;;;36.90;12.77;;;;;;;;;;5088703;28;20587;-81
2022/01/02 01:03:57;;;;;;;34.23;13.10;;;;;;;;;;5088437;28;20584;-81
2022/01/02 01:06:27;;;;;;;29.90;12.57;;;;;;;;;;5090058;28;20573;-81
2022/01/02 01:08:57;;;;;;;27.53;12.33;;;;;;;;;;5086674;28;20241;-82
2022/01/02 01:11:26;;;;;;;35.17;12.70;;;;;;;;;;5090230;28;20210;-80
2022/01/02 01:13:54;;;;;;;29.70;11.93;;;;;;;;;;5085454;28;20213;-81
2022/01/02 01:16:21;;;;;;;28.27;12.17;;;;;;;;;;5087171;28;20728;-81
2022/01/02 01:18:48;;;;;;;26.30;11.97;;;;;;;;;;5085490;28;20308;-80
2022/01/02 01:21:16;;;;;;;28.50;11.87;;;;;;;;;;5089392;28;20277;-82
2022/01/02 01:23:44;;;;;;;30.40;12.33;;;;;;;;;;5092496;28;21527;-82
2022/01/02 01:26:15;;;;;;;31.40;11.57;;;;;;;;;;5088597;28;20280;-82
2022/01/02 01:28:43;;;;;;;29.60;12.50;;;;;;;;;;5091020;28;20716;-83
2022/01/02 01:31:10;;;;;;;30.47;12.23;;;;;;;;;;5090347;28;20202;-82
2022/01/02 01:33:37;;;;;;;31.33;12.47;;;;;;;;;;5092750;28;20213;-82
2022/01/02 01:36:04;;;;;;;25.13;11.60;;;;;;;;;;5088627;28;20213;-82
2022/01/02 01:38:31;;;;;;;30.10;11.80;;;;;;;;;;5088238;28;20313;-82
2022/01/02 01:41:02;;;;;;;28.33;12.20;;;;;;;;;;5089021;28;20236;-82
2022/01/02 01:43:37;;;;;;;31.70;11.03;;;;;;;;;;5090035;28;20260;-82
2022/01/02 01:46:05;;;;;;;23.93;11.60;;;;;;;;;;5093015;28;20214;-83
2022/01/02 01:48:32;;;;;;;26.47;10.63;;;;;;;;;;5088552;28;20260;-82
2022/01/02 01:50:59;;;;;;;28.20;11.77;;;;;;;;;;5093836;28;20752;-82
2022/01/02 01:53:26;;;;;;;25.90;10.20;;;;;;;;;;5087591;28;20209;-81
2022/01/02 01:55:56;;;;;;;23.20;10.13;;;;;;;;;;5092136;28;20289;-82
2022/01/02 01:58:25;;;;;;;21.10;9.73;;;;;;;;;;5093407;28;20225;-82
2022/01/02 02:00:52;;;;;;;26.50;10.00;;;;;;;;;;5085946;28;20248;-82
2022/01/02 02:03:19;;;;;;;20.57;10.30;;;;;;;;;;5088034;28;20692;-82
2022/01/02 02:05:47;;;;;;;25.80;10.30;;;;;;;;;;5089622;28;20234;-82
2022/01/02 02:08:14;;;;;;;21.67;10.13;;;;;;;;;;5085965;28;20786;-81
2022/01/02 02:10:46;;;;;;;20.77;10.03;;;;;;;;;;5088464;28;20251;-81
2022/01/02 02:13:13;;;;;;;28.03;9.70;;;;;;;;;;5084000;28;20223;-82
2022/01/02 02:15:41;;;;;;;19.73;9.93;;;;;;;;;;5091624;28;20213;-81
2022/01/02 02:18:08;;;;;;;22.50;9.43;;;;;;;;;;5086995;28;20237;-82
2022/01/02 02:20:37;;;;;;;21.97;9.33;;;;;;;;;;5086685;28;20225;-83
2022/01/02 02:23:05;;;;;;;20.97;9.87;;;;;;;;;;5088677;28;20210;-83
2022/01/02 02:25:33;;;;;;;25.47;9.70;;;;;;;;;;5089561;28;20261;-82
2022/01/02 02:28:01;;;;;;;23.10;9.47;;;;;;;;;;5086463;28;20309;-82
2022/01/02 02:30:29;;;;;;;20.73;9.53;;;;;;;;;;5090369;28;20210;-82
2022/01/02 02:32:58;;;;;;;23.47;9.30;;;;;;;;;;5084024;28;20285;-82
2022/01/02 02:35:26;;;;;;;24.73;8.93;;;;;;;;;;5087839;28;20228;-82
2022/01/02 02:37:54;;;;;;;22.97;9.00;;;;;;;;;;5088144;28;20218;-83
2022/01/02 02:40:22;;;;;;;23.40;8.93;;;;;;;;;;5089915;28;20230;-83
2022/01/02 02:42:53;;;;;;;20.00;8.10;;;;;;;;;;5085539;28;20210;-83
2022/01/02 02:51:01;;;;;;;20.40;8.33;;;;;;;;;;5087278;28;20204;-82
2022/01/02 02:53:30;;;;;;;20.93;8.27;;;;;;;;;;5087552;28;20198;-82
2022/01/02 02:55:58;;;;;;;21.60;8.67;;;;;;;;;;5085886;28;20201;-81
2022/01/02 02:58:41;;;;;;;22.00;8.97;;;;;;;;;;5087184;28;20246;-82
2022/01/02 03:01:09;;;;;;;18.73;8.07;;;;;;;;;;5088682;28;20227;-82
2022/01/02 03:03:36;;;;;;;22.33;8.60;;;;;;;;;;5084477;28;20228;-82
2022/01/02 03:06:04;;;;;;;20.80;8.30;;;;;;;;;;5091154;28;20205;-81
2022/01/02 03:08:32;;;;;;;18.50;6.90;;;;;;;;;;5085475;28;20238;-81
2022/01/02 03:11:00;;;;;;;17.10;7.43;;;;;;;;;;5087100;28;20217;-82
2022/01/02 03:13:27;;;;;;;14.50;6.40;;;;;;;;;;5085812;28;20212;-82
2022/01/02 03:15:54;;;;;;;17.07;7.43;;;;;;;;;;5091199;28;20241;-82
2022/01/02 03:18:21;;;;;;;17.60;7.37;;;;;;;;;;5087803;28;20232;-83
2022/01/02 03:20:49;;;;;;;17.13;7.40;;;;;;;;;;5091063;28;20917;-81
2022/01/02 03:23:16;;;;;;;19.00;8.20;;;;;;;;;;5088645;28;20210;-82
2022/01/02 03:25:44;;;;;;;17.67;7.13;;;;;;;;;;5089089;28;20206;-81
2022/01/02 03:28:12;;;;;;;14.60;6.93;;;;;;;;;;5086962;28;20229;-82
2022/01/02 03:30:39;;;;;;;17.00;7.70;;;;;;;;;;5091205;28;20205;-81
2022/01/02 03:33:07;;;;;;;11.47;5.70;;;;;;;;;;5083368;28;20209;-82
2022/01/02 03:35:34;;;;;;;13.70;6.10;;;;;;;;;;5086504;28;20529;-81
2022/01/02 03:38:01;;;;;;;12.70;6.10;;;;;;;;;;5091602;28;20225;-83
2022/01/02 03:40:28;;;;;;;13.17;6.17;;;;;;;;;;5084550;28;20217;-83
2022/01/02 03:42:57;;;;;;;14.37;6.50;;;;;;;;;;5085777;28;20587;-81
2022/01/02 03:45:24;;;;;;;14.03;6.37;;;;;;;;;;5092483;28;21037;-81
2022/01/02 03:47:52;;;;;;;13.60;6.13;;;;;;;;;;5095628;28;20213;-82
2022/01/02 03:50:19;;;;;;;16.00;6.37;;;;;;;;;;5092254;28;20587;-82
2022/01/02 03:52:47;;;;;;;12.77;6.30;;;;;;;;;;5095775;28;20301;-83
2022/01/02 03:55:14;;;;;;;15.67;6.70;;;;;;;;;;5093587;28;20320;-83
2022/01/02 03:57:41;;;;;;;15.17;6.20;;;;;;;;;;5094433;28;20293;-82
2022/01/02 04:00:11;;;;;;;11.03;5.63;;;;;;;;;;5093572;28;20566;-81
2022/01/02 04:02:38;;;;;;;12.10;5.93;;;;;;;;;;5092676;28;20225;-82
2022/01/02 04:05:06;;;;;;;14.07;6.07;;;;;;;;;;5092944;28;20680;-83
2022/01/02 04:07:33;;;;;;;12.43;6.07;;;;;;;;;;5091401;28;20202;-81
2022/01/02 04:10:04;;;;;;;11.87;5.83;;;;;;;;;;5092535;28;20212;-82
2022/01/02 04:12:31;;;;;;;11.80;5.77;;;;;;;;;;5094186;28;20235;-81
2022/01/02 04:14:59;;;;;;;12.67;5.90;;;;;;;;;;5094023;28;20232;-82
2022/01/02 04:17:27;;;;;;;13.33;6.10;;;;;;;;;;5091964;28;20634;-82
2022/01/02 04:19:54;;;;;;;14.10;6.23;;;;;;;;;;5094368;28;20212;-81
2022/01/02 04:22:22;;;;;;;12.90;5.90;;;;;;;;;;5089251;28;20226;-82
2022/01/02 04:24:49;;;;;;;13.90;5.97;;;;;;;;;;5088579;28;20206;-81
2022/01/02 04:27:18;;;;;;;14.57;7.07;;;;;;;;;;5094675;28;20206;-79
2022/01/02 04:29:45;;;;;;;14.00;6.70;;;;;;;;;;5088672;28;20225;-80
2022/01/02 04:32:13;;;;;;;16.93;6.87;;;;;;;;;;5089289;28;20213;-82
2022/01/02 04:34:41;;;;;;;14.37;6.37;;;;;;;;;;5087571;28;20216;-83
2022/01/02 04:37:10;;;;;;;13.40;6.20;;;;;;;;;;5091460;28;20210;-81
2022/01/02 04:39:37;;;;;;;20.23;8.13;;;;;;;;;;5090907;28;20587;-80
2022/01/02 04:42:05;;;;;;;19.17;8.13;;;;;;;;;;5090908;28;20327;-80
2022/01/02 04:44:32;;;;;;;20.87;7.97;;;;;;;;;;5086441;28;20214;-79
2022/01/02 04:46:59;;;;;;;18.37;8.03;;;;;;;;;;5096322;28;20258;-82
2022/01/02 04:49:26;;;;;;;20.77;8.60;;;;;;;;;;5087542;28;20646;-80
2022/01/02 04:51:55;;;;;;;20.13;7.87;;;;;;;;;;5089421;28;20202;-81
2022/01/02 04:54:22;;;;;;;19.60;7.50;;;;;;;;;;5090354;28;20658;-82
2022/01/02 04:56:50;;;;;;;18.83;7.73;;;;;;;;;;5092996;28;20212;-81
2022/01/02 04:59:18;;;;;;;18.87;7.70;;;;;;;;;;5094418;28;20241;-82
2022/01/02 05:01:45;;;;;;;20.57;7.37;;;;;;;;;;5091769;28;20222;-82
2022/01/02 05:04:13;;;;;;;17.90;8.13;;;;;;;;;;5090098;28;20585;-83
2022/01/02 05:06:40;;;;;;;18.20;7.10;;;;;;;;;;5095511;28;20266;-83
2022/01/02 05:09:08;;;;;;;18.17;7.63;;;;;;;;;;5096236;28;20591;-80
2022/01/02 05:11:36;;;;;;;17.07;7.00;;;;;;;;;;5093962;28;20210;-81
2022/01/02 05:14:03;;;;;;;20.53;7.67;;;;;;;;;;5090261;28;20688;-81
2022/01/02 05:16:30;;;;;;;18.80;7.57;;;;;;;;;;5090360;28;20637;-80
2022/01/02 05:18:57;;;;;;;25.93;7.57;;;;;;;;;;5090358;28;20236;-81
2022/01/02 05:21:24;;;;;;;20.90;8.27;;;;;;;;;;5089085;28;20727;-81
2022/01/02 05:23:51;;;;;;;19.47;7.67;;;;;;;;;;5086242;28;20237;-81
2022/01/02 05:26:20;;;;;;;19.10;7.30;;;;;;;;;;5087872;28;20238;-80
2022/01/02 05:28:47;;;;;;;19.83;8.03;;;;;;;;;;5087421;28;20222;-82
2022/01/02 05:31:14;;;;;;;20.87;8.13;;;;;;;;;;5090242;28;20204;-81
2022/01/02 05:33:41;;;;;;;22.77;9.20;;;;;;;;;;5088924;28;20680;-82
2022/01/02 05:36:09;;;;;;;18.07;8.03;;;;;;;;;;5090560;28;20362;-82
2022/01/02 05:38:36;;;;;;;19.37;7.40;;;;;;;;;;5091432;28;20728;-82
2022/01/02 05:41:03;;;;;;;17.23;7.33;;;;;;;;;;5090260;28;20578;-81
2022/01/02 05:43:31;;;;;;;21.20;7.97;;;;;;;;;;5088466;28;20585;-81
2022/01/02 05:46:05;;;;;;;19.10;7.77;;;;;;;;;;5091715;28;20292;-81
2022/01/02 05:48:32;;;;;;;20.07;8.40;;;;;;;;;;5089202;28;20256;-80
2022/01/02 05:51:00;;;;;;;17.50;8.23;;;;;;;;;;5090518;28;20217;-80
2022/01/02 05:53:28;;;;;;;19.80;8.30;;;;;;;;;;5092001;28;20213;-81
2022/01/02 05:55:55;;;;;;;15.90;7.50;;;;;;;;;;5092453;28;20275;-81
2022/01/02 05:58:22;;;;;;;20.10;7.73;;;;;;;;;;5090055;28;20222;-82
2022/01/02 06:00:51;;;;;;;14.47;7.40;;;;;;;;;;5094914;28;20202;-82
2022/01/02 06:03:18;;;;;;;19.93;7.83;;;;;;;;;;5093512;28;20243;-82
2022/01/02 06:05:45;;;;;;;16.33;7.23;;;;;;;;;;5086642;28;20198;-82
2022/01/02 06:08:12;;;;;;;18.77;7.70;;;;;;;;;;5092148;28;20230;-81
2022/01/02 06:10:40;;;;;;;17.17;7.70;;;;;;;;;;5091723;28;20257;-83
2022/01/02 06:13:07;;;;;;;16.83;7.40;;;;;;;;;;5090222;28;20198;-81
2022/01/02 06:15:34;;;;;;;18.67;7.60;;;;;;;;;;5083127;28;20198;-82
2022/01/02 06:18:03;;;;;;;15.57;7.57;;;;;;;;;;5090830;28;20290;-81
2022/01/02 06:20:30;;;;;;;14.37;6.53;;;;;;;;;;5091037;28;20202;-82
2022/01/02 06:22:57;;;;;;;16.37;7.10;;;;;;;;;;5092328;28;20221;-81
2022/01/02 06:25:24;;;;;;;17.13;7.90;;;;;;;;;;5087584;28;20296;-82
2022/01/02 06:27:51;;;;;;;22.30;8.47;;;;;;;;;;5088735;28;20230;-82
2022/01/02 06:30:19;;;;;;;16.23;7.40;;;;;;;;;;5081697;28;20214;-80
2022/01/02 06:32:48;;;;;;;16.77;7.90;;;;;;;;;;5091242;28;20236;-80
2022/01/02 06:35:17;;;;;;;13.80;6.50;;;;;;;;;;5089958;28;20208;-82
2022/01/02 06:37:45;;;;;;;17.00;7.40;;;;;;;;;;5090618;28;20200;-82
2022/01/02 06:40:12;;;;;;;16.27;7.33;;;;;;;;;;5091421;28;20237;-81
2022/01/02 06:42:39;;;;;;;15.67;7.50;;;;;;;;;;5084423;28;20325;-82
2022/01/02 06:45:10;;;;;;;17.60;7.33;;;;;;;;;;5088292;28;20739;-82
2022/01/02 06:47:38;;;;;;;17.67;7.27;;;;;;;;;;5091550;28;20277;-82
2022/01/02 06:50:05;;;;;;;20.73;8.30;;;;;;;;;;5092374;28;20296;-82
2022/01/02 06:52:34;;;;;;;17.50;7.63;;;;;;;;;;5090492;28;20217;-83
2022/01/02 06:55:01;;;;;;;19.53;7.50;;;;;;;;;;5091279;28;20209;-83
2022/01/02 06:57:28;;;;;;;18.17;7.27;;;;;;;;;;5089248;28;20213;-82
2022/01/02 06:59:55;;;;;;;17.53;7.60;;;;;;;;;;5088053;28;20210;-82
2022/01/02 07:02:22;;;;;;;16.37;7.47;;;;;;;;;;5093408;28;20236;-82
2022/01/02 07:04:50;;;;;;;13.70;7.10;;;;;;;;;;5082423;28;20217;-83
2022/01/02 07:07:17;;;;;;;16.20;7.37;;;;;;;;;;5089291;28;20244;-82
2022/01/02 07:09:45;;;;;;;14.40;6.50;;;;;;;;;;5089897;28;20235;-82
2022/01/02 07:12:13;;;;;;;14.97;7.40;;;;;;;;;;5087323;28;20739;-81
2022/01/02 07:14:40;;;;;;;13.03;6.60;;;;;;;;;;5084390;28;20208;-82
2022/01/02 07:17:07;;;;;;;15.30;7.73;;;;;;;;;;5087778;28;20703;-81
2022/01/02 07:19:34;;;;;;;14.93;7.87;;;;;;;;;;5083145;28;20286;-82
2022/01/02 07:22:01;;;;;;;14.87;7.80;;;;;;;;;;5087268;28;20228;-82
2022/01/02 07:24:28;;;;;;;16.50;8.30;;;;;;;;;;5089974;28;20240;-81
2022/01/02 07:26:57;;;;;;;13.80;7.10;;;;;;;;;;5086390;28;20205;-82
2022/01/02 07:29:24;;;;;;;17.10;7.83;;;;;;;;;;5079382;28;20324;-80
2022/01/02 07:31:51;;;;;;;17.47;8.20;;;;;;;;;;5084103;28;20247;-82
2022/01/02 07:34:19;;;;;;;16.73;7.87;;;;;;;;;;5089441;28;20217;-83
2022/01/02 07:36:46;;;;;;;19.00;8.73;;;;;;;;;;5089537;28;20620;-83
2022/01/02 07:39:13;;;;;;;17.00;8.27;;;;;;;;;;5086452;28;20232;-81
2022/01/02 07:41:41;;;;;;;17.30;8.77;;;;;;;;;;5086034;28;20208;-82
2022/01/02 07:44:10;;;;;;;16.93;7.90;;;;;;;;;;5083875;28;20210;-82
2022/01/02 07:46:37;;;;;;;19.20;8.90;;;;;;;;;;5080274;28;20222;-82
2022/01/02 07:49:04;;;;;;;19.17;8.87;;;;;;;;;;5083420;28;20231;-81
2022/01/02 07:51:31;;;;;;;16.63;8.23;;;;;;;;;;5084909;28;20205;-81
2022/01/02 07:54:00;;;;;;;21.97;11.67;;;;;;;;;;5085575;28;20217;-82
2022/01/02 07:56:27;;;;;;;22.17;11.80;;;;;;;;;;5087486;28;20239;-81
2022/01/02 07:58:55;;;;;;;23.00;10.13;;;;;;;;;;5082698;28;20316;-81
2022/01/02 08:01:24;;;;;;;19.83;9.37;;;;;;;;;;5087266;28;20499;-81
2022/01/02 08:03:52;;;;;;;17.70;9.20;;;;;;;;;;5082147;28;20222;-83
2022/01/02 08:06:19;;;;;;;17.60;8.27;;;;;;;;;;5086126;28;20206;-83
2022/01/02 08:08:46;;;;;;;18.80;8.80;;;;;;;;;;5086920;28;20285;-83
2022/01/02 08:11:15;;;;;;;15.43;7.57;;;;;;;;;;5083310;28;20304;-82
2022/01/02 08:13:42;;;;;;;16.23;8.40;;;;;;;;;;5084573;28;20230;-82
2022/01/02 08:16:10;;;;;;;13.70;7.30;;;;;;;;;;5084819;28;20669;-82
2022/01/02 08:18:38;;;;;;;17.13;8.00;;;;;;;;;;5084483;28;20229;-82
2022/01/02 08:21:05;;;;;;;18.30;8.00;;;;;;;;;;5080520;28;20289;-82
2022/01/02 08:23:33;;;;;;;20.80;8.50;;;;;;;;;;5084219;28;20253;-79
2022/01/02 08:26:00;;;;;;;17.50;9.50;;;;;;;;;;5081479;28;20201;-80
2022/01/02 08:28:27;;;;;;;18.67;9.23;;;;;;;;;;5084387;28;20228;-80
2022/01/02 08:30:54;;;;;;;21.27;9.60;;;;;;;;;;5089491;28;20210;-81
2022/01/02 08:33:21;;;;;;;19.00;9.00;;;;;;;;;;5086289;28;20236;-81
2022/01/02 08:35:50;;;;;;;17.77;9.83;;;;;;;;;;5087221;28;20210;-80
2022/01/02 08:38:17;;;;;;;18.00;9.13;;;;;;;;;;5087092;28;20235;-81
2022/01/02 08:40:44;;;;;;;20.43;10.10;;;;;;;;;;5088847;28;20308;-81
2022/01/02 08:43:12;;;;;;;21.37;10.70;;;;;;;;;;5084273;28;20232;-82
2022/01/02 08:45:39;;;;;;;23.47;10.83;;;;;;;;;;5085531;28;20610;-80
2022/01/02 08:48:06;;;;;;;20.07;9.90;;;;;;;;;;5093570;28;20221;-83
2022/01/02 08:50:34;;;;;;;20.20;10.10;;;;;;;;;;5087102;28;20732;-81
2022/01/02 08:53:02;;;;;;;20.57;9.70;;;;;;;;;;5087340;28;20209;-83
2022/01/02 08:55:30;;;;;;;16.97;9.27;;;;;;;;;;5083601;28;20214;-81
2022/01/02 08:57:57;;;;;;;21.53;9.93;;;;;;;;;;5090695;28;20229;-81
2022/01/02 09:00:25;;;;;;;21.47;10.30;;;;;;;;;;5088245;28;20206;-81
2022/01/02 09:02:52;;;;;;;19.97;10.57;;;;;;;;;;5085815;28;20217;-82
2022/01/02 09:05:19;;;;;;;25.07;10.07;;;;;;;;;;5088567;28;20696;-81
2022/01/02 09:07:47;;;;;;;20.00;9.27;;;;;;;;;;5088643;28;20261;-80
2022/01/02 09:10:16;;;;;;;19.37;9.40;;;;;;;;;;5085431;28;20297;-82
2022/01/02 09:12:43;;;;;;;21.40;9.73;;;;;;;;;;5090255;28;20494;-81
2022/01/02 09:15:11;;;;;;;19.63;10.63;;;;;;;;;;5085749;28;20259;-81
2022/01/02 09:17:38;;;;;;;22.03;10.23;;;;;;;;;;5085638;28;20575;-80
2022/01/02 09:20:06;;;;;;;20.53;10.13;;;;;;;;;;5088244;28;20209;-80
2022/01/02 09:22:34;;;;;;;23.53;10.53;;;;;;;;;;5086798;28;20224;-80
2022/01/02 09:25:01;;;;;;;21.13;11.07;;;;;;;;;;5084784;28;20245;-81
2022/01/02 09:27:30;;;;;;;21.10;10.67;;;;;;;;;;5089419;28;20203;-81
2022/01/02 09:29:57;;;;;;;21.37;10.87;;;;;;;;;;5084538;28;20205;-80
2022/01/02 09:32:24;;;;;;;21.20;10.47;;;;;;;;;;5083361;28;20624;-83
2022/01/02 09:34:52;;;;;;;23.13;10.73;;;;;;;;;;5089444;28;20245;-80
2022/01/02 09:37:19;;;;;;;23.00;10.63;;;;;;;;;;5095300;28;20205;-82
2022/01/02 09:39:46;;;;;;;21.17;11.07;;;;;;;;;;5094346;28;20216;-80
2022/01/02 09:42:13;;;;;;;21.07;11.13;;;;;;;;;;5087711;28;20240;-80
2022/01/02 09:44:42;;;;;;;22.93;11.17;;;;;;;;;;5110194;28;20178;-81
2022/01/02 09:47:10;;;;;;;22.67;10.93;;;;;;;;;;5108408;28;20239;-81
2022/01/02 09:49:39;;;;;;;21.90;11.13;;;;;;;;;;5101976;28;20274;-82
2022/01/02 09:52:07;;;;;;;24.60;12.77;;;;;;;;;;5096944;28;20535;-84
2022/01/02 09:54:34;;;;;;;23.27;12.27;;;;;;;;;;5090406;28;20202;-83
2022/01/02 09:57:02;;;;;;;21.07;11.00;;;;;;;;;;5096172;28;20265;-82
2022/01/02 09:59:29;;;;;;;21.33;11.40;;;;;;;;;;5091918;28;20397;-83
2022/01/02 10:01:59;;;;;;;24.53;10.80;;;;;;;;;;5087447;28;20193;-83
2022/01/02 10:04:33;;;;;;;25.13;12.43;;;;;;;;;;5087434;28;20225;-81
2022/01/02 10:07:00;;;;;;;23.93;11.93;;;;;;;;;;5092221;28;20214;-83
2022/01/02 10:09:31;;;;;;;23.57;11.73;;;;;;;;;;5091161;28;20276;-82
2022/01/02 10:12:20;;;;;;;23.87;12.73;;;;;;;;;;5085778;28;20735;-81
2022/01/02 10:14:47;;;;;;;23.53;11.50;;;;;;;;;;5086617;28;20198;-83
2022/01/02 10:17:16;;;;;;;22.67;11.67;;;;;;;;;;5083411;28;20662;-83
2022/01/02 10:19:43;;;;;;;21.10;11.17;;;;;;;;;;5085266;28;20320;-82
2022/01/02 10:22:10;;;;;;;22.07;11.67;;;;;;;;;;5085102;28;20670;-82
2022/01/02 10:24:40;;;;;;;22.57;11.43;;;;;;;;;;5087928;28;20312;-83
2022/01/02 10:27:11;;;;;;;23.00;11.67;;;;;;;;;;5090625;28;20653;-85
2022/01/02 10:29:42;;;;;;;22.70;12.43;;;;;;;;;;5090196;28;20255;-84
2022/01/02 10:32:27;;;;;;;22.37;11.80;;;;;;;;;;5091733;28;20756;-83
2022/01/02 10:34:57;;;;;;;22.53;11.67;;;;;;;;;;5089670;28;20688;-83
2022/01/02 10:37:24;;;;;;;23.47;11.83;;;;;;;;;;5089408;28;20202;-84
2022/01/02 10:39:51;;;;;;;23.67;11.07;;;;;;;;;;5090071;28;20253;-84
2022/01/02 10:42:19;;;;;;;21.90;11.50;;;;;;;;;;5084591;28;20209;-84
2022/01/02 10:44:46;;;;;;;22.10;11.47;;;;;;;;;;5091984;28;20401;-84
2022/01/02 10:47:15;;;;;;;23.57;11.23;;;;;;;;;;5090732;28;20213;-82
2022/01/02 10:49:58;;;;;;;23.47;11.17;;;;;;;;;;5082794;28;20229;-85
2022/01/02 10:52:28;;;;;;;22.33;11.20;;;;;;;;;;5086103;28;20206;-84
2022/01/02 10:54:57;;;;;;;24.07;11.17;;;;;;;;;;5091061;28;20745;-82
2022/01/02 10:57:24;;;;;;;18.57;10.17;;;;;;;;;;5093587;28;20225;-83
2022/01/02 10:59:56;;;;;;;23.17;11.10;;;;;;;;;;5089526;28;20205;-82
2022/01/02 11:02:24;;;;;;;23.57;11.03;;;;;;;;;;5089513;28;20623;-81
2022/01/02 11:04:56;;;;;;;21.27;10.60;;;;;;;;;;5086486;28;20217;-81
2022/01/02 11:07:25;;;;;;;21.20;10.90;;;;;;;;;;5091844;28;20589;-83
2022/01/02 11:09:55;;;;;;;18.47;10.20;;;;;;;;;;5087776;28;20209;-81
2022/01/02 11:12:22;;;;;;;19.77;10.40;;;;;;;;;;5089586;28;20293;-83
2022/01/02 11:14:50;;;;;;;25.53;11.63;;;;;;;;;;5090973;28;20197;-84
2022/01/02 11:17:17;;;;;;;21.93;11.07;;;;;;;;;;5091544;28;20284;-84
2022/01/02 11:19:45;;;;;;;20.93;10.00;;;;;;;;;;5090105;28;20236;-83
2022/01/02 11:22:14;;;;;;;23.03;10.30;;;;;;;;;;5092397;28;20206;-82
2022/01/02 11:24:46;;;;;;;19.47;10.43;;;;;;;;;;5103353;28;20232;-80
2022/01/02 11:27:19;;;;;;;22.97;10.77;;;;;;;;;;5110115;28;20750;-80
2022/01/02 11:29:46;;;;;;;18.03;9.47;;;;;;;;;;5108753;28;20243;-81
2022/01/02 11:32:24;;;;;;;17.40;9.27;;;;;;;;;;5089094;28;20194;-83
2022/01/02 11:34:51;;;;;;;20.20;9.33;;;;;;;;;;5088504;28;20210;-84
2022/01/02 11:37:23;;;;;;;16.27;9.00;;;;;;;;;;5091085;28;20227;-82
2022/01/02 11:39:58;;;;;;;16.70;9.40;;;;;;;;;;5085955;28;20268;-82
2022/01/02 11:42:46;;;;;;;18.47;8.70;;;;;;;;;;5087831;28;20205;-82
2022/01/02 11:45:41;;;;;;;17.50;8.03;;;;;;;;;;5092918;28;20220;-84
2022/01/02 11:48:27;;;;;;;16.40;8.10;;;;;;;;;;5044648;28;20308;-83
2022/01/02 11:50:54;;;;;;;15.77;9.10;;;;;;;;;;5089077;28;20208;-83
2022/01/02 11:53:26;;;;;;;14.77;8.13;;;;;;;;;;5088214;28;20522;-84
2022/01/02 11:55:54;;;;;;;17.73;9.10;;;;;;;;;;5092063;28;20209;-82
2022/01/02 11:58:40;;;;;;;13.83;7.87;;;;;;;;;;5091071;28;20240;-83
2022/01/02 12:01:08;;;;;;;15.47;7.97;;;;;;;;;;5088359;28;20320;-83
2022/01/02 12:03:49;;;;;;;13.50;7.57;;;;;;;;;;5091052;28;20214;-82
2022/01/02 12:06:19;;;;;;;12.60;6.80;;;;;;;;;;5090962;28;20202;-83
2022/01/02 12:08:46;;;;;;;12.90;7.43;;;;;;;;;;5093050;28;20371;-84
2022/01/02 12:11:37;;;;;;;12.00;6.80;;;;;;;;;;5095015;28;20653;-84
2022/01/02 12:14:05;;;;;;;11.87;7.10;;;;;;;;;;5073688;28;20260;-84
2022/01/02 12:16:37;;;;;;;16.60;7.77;;;;;;;;;;5090190;28;20296;-82
2022/01/02 12:19:05;;;;;;;12.13;6.90;;;;;;;;;;5093855;28;20253;-83
2022/01/02 12:21:33;;;;;;;15.17;6.40;;;;;;;;;;5092897;28;20210;-83
2022/01/02 12:24:02;;;;;;;11.00;6.57;;;;;;;;;;5089574;28;20226;-81
2022/01/02 12:26:31;;;;;;;13.80;7.17;;;;;;;;;;5080581;28;20197;-84
2022/01/02 12:29:00;;;;;;;12.50;6.63;;;;;;;;;;5096122;28;20286;-83
2022/01/02 12:31:29;;;;;;;12.80;6.40;;;;;;;;;;5094345;28;20258;-82
2022/01/02 12:34:03;;;;;;;13.67;6.93;;;;;;;;;;5095353;28;20627;-82
2022/01/02 12:36:31;;;;;;;13.63;6.40;;;;;;;;;;5099374;28;20296;-83
2022/01/02 12:38:59;;;;;;;12.33;5.63;;;;;;;;;;5095156;28;20221;-84
2022/01/02 12:41:26;;;;;;;9.00;5.13;;;;;;;;;;5095092;28;20194;-85
2022/01/02 12:43:54;;;;;;;9.40;5.17;;;;;;;;;;5092860;28;20285;-83
2022/01/02 12:46:34;;;;;;;8.23;4.60;;;;;;;;;;5100371;28;20580;-84
2022/01/02 12:49:03;;;;;;;6.30;3.60;;;;;;;;;;5098629;28;20281;-83
2022/01/02 12:51:31;;;;;;;8.77;3.53;;;;;;;;;;5096338;28;20205;-83
2022/01/02 12:54:02;;;;;;;8.30;3.60;;;;;;;;;;5089031;28;20204;-84
2022/01/02 12:56:37;;;;;;;6.17;2.93;;;;;;;;;;5096001;28;20265;-84
2022/01/02 12:59:17;;;;;;;5.70;2.80;;;;;;;;;;5094960;28;20273;-81
2022/01/02 13:01:51;;;;;;;5.70;2.80;;;;;;;;;;5092426;28;20453;-83
2022/01/02 13:04:22;;;;;;;4.03;2.27;;;;;;;;;;5102729;28;20214;-82
2022/01/02 13:06:49;;;;;;;5.33;3.10;;;;;;;;;;5105436;28;20216;-81
2022/01/02 13:09:23;;;;;;;5.23;2.50;;;;;;;;;;5106247;28;20218;-83
2022/01/02 13:11:50;;;;;;;4.33;2.03;;;;;;;;;;5104737;22;20229;-78
2022/01/02 13:14:30;;;;;;;6.17;2.20;;;;;;;;;;5097089;28;20642;-78
2022/01/02 13:16:57;;;;;;;4.77;2.10;;;;;;;;;;5102615;28;20225;-81
2022/01/02 13:19:25;;;;;;;8.07;1.93;;;;;;;;;;5104744;28;20670;-80
2022/01/02 13:21:53;;;;;;;6.03;2.10;;;;;;;;;;5103252;28;20236;-81
2022/01/02 13:24:24;;;;;;;6.10;2.37;;;;;;;;;;5103173;28;20310;-81
2022/01/02 13:26:51;;;;;;;4.03;2.07;;;;;;;;;;5104015;28;20213;-81
2022/01/02 13:29:22;;;;;;;7.00;2.73;;;;;;;;;;5100411;28;20268;-81
2022/01/02 13:31:49;;;;;;;7.43;2.20;;;;;;;;;;5098581;28;20585;-81
2022/01/02 13:34:22;;;;;;;6.83;2.77;;;;;;;;;;5100345;28;20201;-81
2022/01/02 13:36:57;;;;;;;4.77;2.27;;;;;;;;;;5100062;28;20206;-80
2022/01/02 13:39:41;;;;;;;6.43;2.40;;;;;;;;;;5105556;28;20224;-81
2022/01/02 13:42:09;;;;;;;5.70;2.60;;;;;;;;;;5111023;28;20210;-81
2022/01/02 13:44:43;;;;;;;9.83;2.27;;;;;;;;;;5110310;28;20264;-81
2022/01/02 13:47:11;;;;;;;5.90;2.60;;;;;;;;;;5107400;28;20268;-81
2022/01/02 13:49:42;;;;;;;3.40;2.30;;;;;;;;;;5106893;28;20287;-81
2022/01/02 13:52:11;;;;;;;7.07;2.50;;;;;;;;;;5106060;28;20236;-81
2022/01/02 13:54:38;;;;;;;4.70;2.67;;;;;;;;;;5106428;28;20233;-81
2022/01/02 13:57:06;;;;;;;6.73;2.63;;;;;;;;;;5106325;28;20205;-81
2022/01/02 13:59:33;;;;;;;5.97;2.57;;;;;;;;;;5103343;28;20232;-80
2022/01/02 14:02:00;;;;;;;4.27;2.50;;;;;;;;;;5105184;28;20277;-80
2022/01/02 14:04:27;;;;;;;5.83;2.30;;;;;;;;;;5108401;28;20232;-81
2022/01/02 14:06:55;;;;;;;7.93;2.37;;;;;;;;;;5104361;28;20292;-80
2022/01/02 14:09:23;;;;;;;6.93;2.50;;;;;;;;;;5108631;28;20221;-80
2022/01/02 14:11:53;;;;;;;4.43;2.23;;;;;;;;;;5104656;28;20328;-81
2022/01/02 14:14:25;;;;;;;7.60;3.00;;;;;;;;;;5102007;28;20284;-81
2022/01/02 14:17:03;;;;;;;4.07;2.30;;;;;;;;;;5106750;28;20201;-81
2022/01/02 14:19:31;;;;;;;5.07;2.73;;;;;;;;;;5101578;28;20235;-81
2022/01/02 14:22:01;;;;;;;6.67;2.63;;;;;;;;;;5107141;28;20219;-81
2022/01/02 14:24:29;;;;;;;6.93;2.67;;;;;;;;;;5101446;28;20634;-80
2022/01/02 14:26:56;;;;;;;6.33;3.00;;;;;;;;;;5100353;28;20225;-80
2022/01/02 14:29:24;;;;;;;4.13;2.17;;;;;;;;;;5107186;28;20263;-80
2022/01/02 14:31:51;;;;;;;5.80;2.30;;;;;;;;;;5106140;28;20234;-81
2022/01/02 14:34:18;;;;;;;5.03;2.27;;;;;;;;;;5107455;28;20209;-81
2022/01/02 14:36:46;;;;;;;5.10;2.17;;;;;;;;;;5107434;28;20507;-81
2022/01/02 14:39:13;;;;;;;4.87;2.43;;;;;;;;;;5108099;28;20248;-81
2022/01/02 14:41:42;;;;;;;5.43;2.80;;;;;;;;;;5109026;28;20205;-81
2022/01/02 14:44:10;;;;;;;7.30;2.40;;;;;;;;;;5111385;28;20232;-81